createdAt,value
2018-07-17T00:00:59.592Z,15.13
2018-07-17T00:02:05.561Z,15.17
2018-07-17T00:03:12.019Z,15.17
2018-07-17T00:04:18.472Z,15.07
2018-07-17T00:05:24.913Z,14.97
2018-07-17T00:06:31.360Z,14.90
2018-07-17T00:07:37.817Z,14.92
2018-07-17T00:08:44.301Z,14.94
2018-07-17T00:09:50.707Z,14.90
2018-07-17T00:10:57.165Z,14.82
2018-07-17T00:12:03.604Z,14.73
2018-07-17T00:13:10.048Z,14.69
2018-07-17T00:14:16.512Z,14.65
2018-07-17T00:15:22.950Z,14.62
2018-07-17T00:16:29.403Z,14.54
2018-07-17T00:17:35.840Z,14.46
2018-07-17T00:18:42.281Z,14.44
2018-07-17T00:19:48.753Z,14.40
2018-07-17T00:20:55.179Z,14.38
2018-07-17T00:22:01.619Z,14.36
2018-07-17T00:23:08.060Z,14.35
2018-07-17T00:24:14.507Z,14.32
2018-07-17T00:25:20.943Z,14.31
2018-07-17T00:26:27.396Z,14.30
2018-07-17T00:27:33.836Z,14.23
2018-07-17T00:28:40.275Z,14.18
2018-07-17T00:29:46.721Z,14.16
2018-07-17T00:30:53.165Z,14.13
2018-07-17T00:31:59.596Z,14.14
2018-07-17T00:33:06.037Z,14.15
2018-07-17T00:34:12.491Z,14.20
2018-07-17T00:35:18.930Z,14.34
2018-07-17T00:36:26.375Z,14.49
2018-07-17T00:37:31.820Z,14.62
2018-07-17T00:38:38.279Z,14.69
2018-07-17T00:39:44.731Z,14.65
2018-07-17T00:40:51.170Z,14.59
2018-07-17T00:41:57.627Z,14.49
2018-07-17T00:43:04.085Z,14.36
2018-07-17T00:44:10.544Z,14.27
2018-07-17T00:45:16.995Z,14.18
2018-07-17T00:46:23.441Z,14.09
2018-07-17T00:47:29.908Z,14.05
2018-07-17T00:48:36.351Z,13.99
2018-07-17T00:49:42.914Z,13.96
2018-07-17T00:50:49.264Z,13.95
2018-07-17T00:51:55.719Z,13.92
2018-07-17T00:53:02.178Z,13.91
2018-07-17T00:54:08.649Z,13.88
2018-07-17T00:55:15.093Z,13.86
2018-07-17T00:56:21.558Z,13.86
2018-07-17T00:57:28.007Z,13.89
2018-07-17T00:58:34.464Z,13.95
2018-07-17T00:59:40.946Z,13.92
2018-07-17T01:00:47.397Z,13.85
2018-07-17T01:01:53.838Z,13.77
2018-07-17T01:03:00.299Z,13.73
2018-07-17T01:04:06.759Z,13.67
2018-07-17T01:05:13.213Z,13.60
2018-07-17T01:06:19.674Z,13.58
2018-07-17T01:07:26.124Z,13.63
2018-07-17T01:08:32.571Z,13.65
2018-07-17T01:09:39.043Z,13.68
2018-07-17T01:10:45.506Z,13.70
2018-07-17T01:11:51.953Z,13.71
2018-07-17T01:12:58.401Z,13.70
2018-07-17T01:14:05.909Z,13.67
2018-07-17T01:15:12.319Z,13.64
2018-07-17T01:16:17.777Z,13.57
2018-07-17T01:17:24.235Z,13.49
2018-07-17T01:18:30.691Z,13.39
2018-07-17T01:19:38.167Z,13.34
2018-07-17T01:20:44.619Z,13.29
2018-07-17T01:21:50.069Z,13.26
2018-07-17T01:22:56.523Z,13.28
2018-07-17T01:24:03.474Z,13.27
2018-07-17T01:25:09.434Z,13.25
2018-07-17T01:26:15.881Z,13.25
2018-07-17T01:27:22.815Z,13.28
2018-07-17T01:28:28.777Z,13.34
2018-07-17T01:29:35.222Z,13.34
2018-07-17T01:30:41.668Z,13.29
2018-07-17T01:31:48.112Z,13.23
2018-07-17T01:32:55.547Z,13.17
2018-07-17T01:34:00.995Z,13.13
2018-07-17T01:35:07.445Z,13.10
2018-07-17T01:36:13.879Z,13.19
2018-07-17T01:37:20.316Z,13.22
2018-07-17T01:38:27.263Z,13.22
2018-07-17T01:39:33.195Z,13.40
2018-07-17T01:40:39.640Z,13.51
2018-07-17T01:41:46.069Z,13.45
2018-07-17T01:42:52.502Z,13.37
2018-07-17T01:43:58.949Z,13.29
2018-07-17T01:45:05.379Z,13.37
2018-07-17T01:46:11.904Z,13.47
2018-07-17T01:47:18.233Z,13.46
2018-07-17T01:48:24.662Z,13.38
2018-07-17T01:49:31.102Z,13.31
2018-07-17T01:50:37.521Z,13.26
2018-07-17T01:51:44.425Z,13.23
2018-07-17T01:52:50.363Z,13.18
2018-07-17T01:53:56.772Z,13.16
2018-07-17T01:55:03.194Z,13.11
2018-07-17T01:56:09.605Z,13.08
2018-07-17T01:57:16.024Z,13.04
2018-07-17T01:58:22.433Z,12.99
2018-07-17T01:59:28.853Z,12.93
2018-07-17T02:00:35.272Z,12.86
2018-07-17T02:01:41.668Z,12.82
2018-07-17T02:02:48.094Z,12.80
2018-07-17T02:03:54.502Z,12.80
2018-07-17T02:05:00.926Z,12.80
2018-07-17T02:06:07.328Z,12.82
2018-07-17T02:07:13.754Z,12.84
2018-07-17T02:08:20.178Z,12.85
2018-07-17T02:09:26.602Z,12.86
2018-07-17T02:10:33.029Z,12.89
2018-07-17T02:11:39.443Z,12.86
2018-07-17T02:12:45.874Z,12.82
2018-07-17T02:13:52.322Z,12.80
2018-07-17T02:14:58.725Z,12.78
2018-07-17T02:16:05.158Z,12.76
2018-07-17T02:17:11.588Z,12.77
2018-07-17T02:18:18.023Z,12.75
2018-07-17T02:19:24.456Z,12.75
2018-07-17T02:20:30.884Z,12.75
2018-07-17T02:21:37.305Z,12.70
2018-07-17T02:22:44.236Z,12.67
2018-07-17T02:23:50.162Z,12.66
2018-07-17T02:24:56.588Z,12.65
2018-07-17T02:26:03.067Z,12.65
2018-07-17T02:27:09.449Z,12.63
2018-07-17T02:28:15.872Z,12.61
2018-07-17T02:29:22.602Z,12.62
2018-07-17T02:30:28.734Z,12.57
2018-07-17T02:31:35.160Z,12.56
2018-07-17T02:32:41.579Z,12.53
2018-07-17T02:33:48.012Z,12.49
2018-07-17T02:34:54.438Z,12.43
2018-07-17T02:36:00.872Z,12.41
2018-07-17T02:37:07.299Z,12.41
2018-07-17T02:38:13.724Z,12.40
2018-07-17T02:39:20.150Z,12.42
2018-07-17T02:40:26.582Z,12.43
2018-07-17T02:41:33.003Z,12.43
2018-07-17T02:42:39.417Z,12.41
2018-07-17T02:43:45.855Z,12.36
2018-07-17T02:44:52.283Z,12.31
2018-07-17T02:45:58.709Z,12.27
2018-07-17T02:47:05.120Z,12.26
2018-07-17T02:48:11.547Z,12.27
2018-07-17T02:49:17.966Z,12.30
2018-07-17T02:50:24.401Z,12.32
2018-07-17T02:51:30.813Z,12.34
2018-07-17T02:52:37.238Z,12.45
2018-07-17T02:53:43.654Z,12.54
2018-07-17T02:54:50.090Z,12.59
2018-07-17T02:55:56.516Z,12.67
2018-07-17T02:57:02.935Z,12.70
2018-07-17T02:58:09.362Z,12.68
2018-07-17T02:59:15.880Z,12.58
2018-07-17T03:00:22.224Z,12.50
2018-07-17T03:01:28.643Z,12.41
2018-07-17T03:02:35.061Z,12.33
2018-07-17T03:03:41.495Z,12.26
2018-07-17T03:04:47.914Z,12.23
2018-07-17T03:05:54.353Z,12.22
2018-07-17T03:07:00.834Z,12.15
2018-07-17T03:08:07.213Z,12.10
2018-07-17T03:09:13.644Z,12.05
2018-07-17T03:10:20.061Z,11.97
2018-07-17T03:11:26.500Z,11.92
2018-07-17T03:12:32.929Z,11.88
2018-07-17T03:13:39.556Z,11.84
2018-07-17T03:14:45.788Z,11.81
2018-07-17T03:15:52.704Z,11.81
2018-07-17T03:16:58.640Z,11.85
2018-07-17T03:18:05.062Z,11.89
2018-07-17T03:19:11.498Z,12.00
2018-07-17T03:20:17.920Z,12.22
2018-07-17T03:21:24.354Z,12.27
2018-07-17T03:22:30.771Z,12.22
2018-07-17T03:23:37.190Z,12.13
2018-07-17T03:24:43.706Z,12.08
2018-07-17T03:25:50.525Z,12.03
2018-07-17T03:26:56.457Z,12.00
2018-07-17T03:28:02.862Z,11.97
2018-07-17T03:29:09.286Z,11.92
2018-07-17T03:30:15.698Z,11.90
2018-07-17T03:31:22.116Z,11.82
2018-07-17T03:32:28.517Z,11.77
2018-07-17T03:33:34.938Z,11.74
2018-07-17T03:34:41.894Z,11.71
2018-07-17T03:35:47.762Z,11.67
2018-07-17T03:36:54.164Z,11.66
2018-07-17T03:38:00.566Z,11.63
2018-07-17T03:39:06.968Z,11.65
2018-07-17T03:40:13.371Z,11.71
2018-07-17T03:41:19.775Z,11.75
2018-07-17T03:42:26.167Z,11.73
2018-07-17T03:43:33.058Z,11.72
2018-07-17T03:44:38.972Z,11.72
2018-07-17T03:45:45.380Z,11.69
2018-07-17T03:46:51.767Z,11.66
2018-07-17T03:47:58.163Z,11.66
2018-07-17T03:49:04.575Z,11.69
2018-07-17T03:50:10.979Z,11.73
2018-07-17T03:51:17.387Z,11.79
2018-07-17T03:52:23.785Z,11.84
2018-07-17T03:53:30.194Z,11.87
2018-07-17T03:54:36.606Z,11.91
2018-07-17T03:55:43.011Z,11.91
2018-07-17T03:56:49.432Z,11.90
2018-07-17T03:57:55.843Z,11.89
2018-07-17T03:59:02.258Z,11.90
2018-07-17T04:00:08.671Z,11.92
2018-07-17T04:01:15.088Z,11.97
2018-07-17T04:02:21.492Z,12.01
2018-07-17T04:03:27.908Z,12.06
2018-07-17T04:04:34.325Z,12.11
2018-07-17T04:05:40.741Z,12.16
2018-07-17T04:06:47.655Z,12.18
2018-07-17T04:07:53.575Z,12.13
2018-07-17T04:08:59.980Z,12.11
2018-07-17T04:10:06.389Z,12.17
2018-07-17T04:11:12.939Z,12.27
2018-07-17T04:12:19.210Z,12.29
2018-07-17T04:13:25.657Z,12.31
2018-07-17T04:14:32.049Z,12.30
2018-07-17T04:15:38.463Z,12.34
2018-07-17T04:16:44.890Z,12.45
2018-07-17T04:17:51.298Z,12.56
2018-07-17T04:18:57.728Z,12.56
2018-07-17T04:20:04.153Z,12.55
2018-07-17T04:21:10.581Z,12.54
2018-07-17T04:22:16.996Z,12.54
2018-07-17T04:23:23.435Z,12.60
2018-07-17T04:24:29.861Z,12.62
2018-07-17T04:25:36.299Z,12.67
2018-07-17T04:26:42.734Z,12.71
2018-07-17T04:27:49.158Z,12.72
2018-07-17T04:28:56.094Z,12.67
2018-07-17T04:30:02.032Z,12.63
2018-07-17T04:31:08.481Z,12.63
2018-07-17T04:32:14.902Z,12.60
2018-07-17T04:33:21.342Z,12.61
2018-07-17T04:34:27.779Z,12.63
2018-07-17T04:35:34.218Z,12.70
2018-07-17T04:36:40.673Z,12.76
2018-07-17T04:37:47.099Z,12.81
2018-07-17T04:38:53.547Z,12.86
2018-07-17T04:40:00.012Z,12.85
2018-07-17T04:41:06.442Z,12.88
2018-07-17T04:42:12.882Z,12.96
2018-07-17T04:43:19.328Z,13.00
2018-07-17T04:44:25.778Z,13.05
2018-07-17T04:45:32.218Z,13.13
2018-07-17T04:46:38.733Z,13.27
2018-07-17T04:47:45.129Z,13.42
2018-07-17T04:48:51.575Z,13.63
2018-07-17T04:49:58.525Z,13.77
2018-07-17T04:51:04.491Z,13.82
2018-07-17T04:52:10.949Z,13.86
2018-07-17T04:53:17.394Z,13.94
2018-07-17T04:54:23.856Z,14.01
2018-07-17T04:55:30.308Z,14.02
2018-07-17T04:56:36.776Z,13.99
2018-07-17T04:57:43.235Z,13.96
2018-07-17T04:58:49.687Z,13.97
2018-07-17T04:59:56.153Z,13.98
2018-07-17T05:01:02.622Z,14.00
2018-07-17T05:02:09.102Z,14.01
2018-07-17T05:03:15.560Z,14.03
2018-07-17T05:04:22.032Z,14.05
2018-07-17T05:05:28.997Z,14.09
2018-07-17T05:06:34.974Z,14.16
2018-07-17T05:07:41.448Z,14.22
2018-07-17T05:08:47.925Z,14.27
2018-07-17T05:09:54.393Z,14.34
2018-07-17T05:11:00.883Z,14.42
2018-07-17T05:12:07.362Z,14.54
2018-07-17T05:13:13.835Z,14.59
2018-07-17T05:14:20.315Z,14.66
2018-07-17T05:15:26.891Z,14.70
2018-07-17T05:16:33.283Z,14.77
2018-07-17T05:17:39.770Z,14.84
2018-07-17T05:18:46.246Z,14.96
2018-07-17T05:19:52.733Z,15.07
2018-07-17T05:20:59.221Z,15.18
2018-07-17T05:22:05.737Z,15.28
2018-07-17T05:23:12.203Z,15.36
2018-07-17T05:24:18.697Z,15.43
2018-07-17T05:25:25.191Z,15.48
2018-07-17T05:26:31.686Z,15.54
2018-07-17T05:27:38.185Z,15.62
2018-07-17T05:28:44.674Z,15.69
2018-07-17T05:29:51.179Z,15.75
2018-07-17T05:30:57.677Z,15.80
2018-07-17T05:32:04.181Z,15.78
2018-07-17T05:33:10.670Z,15.76
2018-07-17T05:34:17.172Z,15.78
2018-07-17T05:35:23.707Z,15.79
2018-07-17T05:36:30.219Z,15.79
2018-07-17T05:37:36.700Z,15.77
2018-07-17T05:38:43.202Z,15.77
2018-07-17T05:39:49.705Z,15.85
2018-07-17T05:40:56.209Z,15.98
2018-07-17T05:42:02.730Z,16.02
2018-07-17T05:43:09.230Z,16.03
2018-07-17T05:44:15.731Z,16.04
2018-07-17T05:45:22.241Z,16.09
2018-07-17T05:46:28.802Z,16.10
2018-07-17T05:47:35.277Z,16.11
2018-07-17T05:48:41.783Z,16.11
2018-07-17T05:49:48.283Z,16.12
2018-07-17T05:50:54.794Z,16.13
2018-07-17T05:52:01.356Z,16.13
2018-07-17T05:53:07.954Z,16.19
2018-07-17T05:54:14.840Z,16.22
2018-07-17T05:55:20.870Z,16.23
2018-07-17T05:56:27.366Z,16.24
2018-07-17T05:57:34.904Z,16.29
2018-07-17T05:58:40.489Z,16.35
2018-07-17T05:59:46.962Z,16.42
2018-07-17T06:00:53.461Z,16.46
2018-07-17T06:01:59.990Z,16.49
2018-07-17T06:03:06.513Z,16.58
2018-07-17T06:04:13.037Z,16.65
2018-07-17T06:05:19.557Z,16.71
2018-07-17T06:06:26.124Z,16.73
2018-07-17T06:07:32.635Z,16.77
2018-07-17T06:08:39.156Z,16.79
2018-07-17T06:09:45.691Z,16.82
2018-07-17T06:10:52.221Z,16.88
2018-07-17T06:11:58.775Z,16.96
2018-07-17T06:13:05.313Z,17.05
2018-07-17T06:14:11.838Z,17.12
2018-07-17T06:15:18.378Z,17.17
2018-07-17T06:16:24.929Z,17.22
2018-07-17T06:17:31.482Z,17.25
2018-07-17T06:18:38.019Z,17.28
2018-07-17T06:19:44.564Z,17.35
2018-07-17T06:20:51.102Z,17.49
2018-07-17T06:21:58.208Z,17.71
2018-07-17T06:23:04.208Z,17.84
2018-07-17T06:24:10.743Z,17.92
2018-07-17T06:25:17.301Z,17.96
2018-07-17T06:26:23.842Z,18.00
2018-07-17T06:27:30.403Z,18.04
2018-07-17T06:28:36.958Z,18.07
2018-07-17T06:29:43.500Z,18.08
2018-07-17T06:30:50.059Z,18.17
2018-07-17T06:31:56.619Z,18.26
2018-07-17T06:33:03.223Z,18.36
2018-07-17T06:34:09.720Z,18.36
2018-07-17T06:35:16.281Z,18.33
2018-07-17T06:36:22.854Z,18.33
2018-07-17T06:37:29.410Z,18.39
2018-07-17T06:38:35.964Z,18.43
2018-07-17T06:39:42.515Z,18.47
2018-07-17T06:40:49.579Z,18.59
2018-07-17T06:41:55.653Z,18.71
2018-07-17T06:43:02.214Z,18.80
2018-07-17T06:44:08.770Z,18.81
2018-07-17T06:45:15.341Z,18.79
2018-07-17T06:46:21.912Z,18.75
2018-07-17T06:47:28.490Z,18.77
2018-07-17T06:48:35.106Z,18.80
2018-07-17T06:49:41.617Z,18.87
2018-07-17T06:50:48.245Z,19.07
2018-07-17T06:51:54.801Z,19.21
2018-07-17T06:53:01.365Z,19.34
2018-07-17T06:54:07.947Z,19.44
2018-07-17T06:55:14.540Z,19.52
2018-07-17T06:56:21.142Z,19.59
2018-07-17T06:57:27.872Z,19.69
2018-07-17T06:58:34.339Z,19.73
2018-07-17T06:59:40.946Z,19.80
2018-07-17T07:00:47.572Z,19.91
2018-07-17T07:01:54.170Z,20.09
2018-07-17T07:03:00.802Z,20.28
2018-07-17T07:04:07.428Z,20.45
2018-07-17T07:05:14.055Z,20.62
2018-07-17T07:06:20.683Z,20.78
2018-07-17T07:07:27.324Z,20.93
2018-07-17T07:08:33.964Z,21.05
2018-07-17T07:09:40.599Z,21.15
2018-07-17T07:10:47.238Z,21.24
2018-07-17T07:11:53.896Z,21.31
2018-07-17T07:13:01.542Z,21.41
2018-07-17T07:14:07.200Z,21.53
2018-07-17T07:15:13.853Z,21.65
2018-07-17T07:16:20.505Z,21.77
2018-07-17T07:17:27.175Z,21.85
2018-07-17T07:18:33.850Z,21.92
2018-07-17T07:19:40.676Z,21.98
2018-07-17T07:20:47.147Z,22.06
2018-07-17T07:21:53.799Z,22.12
2018-07-17T07:23:00.474Z,22.14
2018-07-17T07:24:07.142Z,22.26
2018-07-17T07:25:13.908Z,22.36
2018-07-17T07:26:20.471Z,22.64
2018-07-17T07:27:27.142Z,23.80
2018-07-17T07:28:33.899Z,25.80
2018-07-17T07:29:40.481Z,27.43
2018-07-17T07:30:47.153Z,27.65
2018-07-17T07:31:53.814Z,27.53
2018-07-17T07:33:00.516Z,26.93
2018-07-17T07:34:07.180Z,26.10
2018-07-17T07:35:13.839Z,25.58
2018-07-17T07:36:20.505Z,26.52
2018-07-17T07:37:27.222Z,28.27
2018-07-17T07:38:33.870Z,28.67
2018-07-17T07:39:40.541Z,27.86
2018-07-17T07:40:47.219Z,27.07
2018-07-17T07:41:53.921Z,26.52
2018-07-17T07:43:00.589Z,26.11
2018-07-17T07:44:07.268Z,25.86
2018-07-17T07:45:13.952Z,25.58
2018-07-17T07:46:20.635Z,25.27
2018-07-17T07:47:27.328Z,24.91
2018-07-17T07:48:34.007Z,24.60
2018-07-17T07:49:40.684Z,24.33
2018-07-17T07:50:47.372Z,24.21
2018-07-17T07:51:54.065Z,24.13
2018-07-17T07:53:00.757Z,24.07
2018-07-17T07:54:07.439Z,23.98
2018-07-17T07:55:14.144Z,23.88
2018-07-17T07:56:20.838Z,23.75
2018-07-17T07:57:27.531Z,23.70
2018-07-17T07:58:34.238Z,23.74
2018-07-17T07:59:40.926Z,23.78
2018-07-17T08:00:47.828Z,23.79
2018-07-17T08:01:54.333Z,23.84
2018-07-17T08:03:01.045Z,23.83
2018-07-17T08:04:07.826Z,23.85
2018-07-17T08:05:14.450Z,23.83
2018-07-17T08:06:21.169Z,23.72
2018-07-17T08:07:27.878Z,23.59
2018-07-17T08:08:34.609Z,23.51
2018-07-17T08:09:41.305Z,23.45
2018-07-17T08:10:48.028Z,23.46
2018-07-17T08:11:54.751Z,23.53
2018-07-17T08:13:01.443Z,23.63
2018-07-17T08:14:08.159Z,23.70
2018-07-17T08:15:14.881Z,23.79
2018-07-17T08:16:21.602Z,23.86
2018-07-17T08:17:28.315Z,23.93
2018-07-17T08:18:35.037Z,24.02
2018-07-17T08:19:41.745Z,24.11
2018-07-17T08:20:48.961Z,24.20
2018-07-17T08:21:55.209Z,24.25
2018-07-17T08:23:01.943Z,24.28
2018-07-17T08:24:08.652Z,24.30
2018-07-17T08:25:15.388Z,24.32
2018-07-17T08:26:22.112Z,24.42
2018-07-17T08:27:28.844Z,24.52
2018-07-17T08:28:35.596Z,24.58
2018-07-17T08:29:42.398Z,24.56
2018-07-17T08:30:49.051Z,24.58
2018-07-17T08:31:55.794Z,24.65
2018-07-17T08:33:02.540Z,24.67
2018-07-17T08:34:09.273Z,24.64
2018-07-17T08:35:16.006Z,24.60
2018-07-17T08:36:22.759Z,24.63
2018-07-17T08:37:29.501Z,24.69
2018-07-17T08:38:36.255Z,24.73
2018-07-17T08:39:43.021Z,24.80
2018-07-17T08:40:49.741Z,24.90
2018-07-17T08:41:56.497Z,25.00
2018-07-17T08:43:03.262Z,25.13
2018-07-17T08:44:10.010Z,25.20
2018-07-17T08:45:16.792Z,25.25
2018-07-17T08:46:23.560Z,25.29
2018-07-17T08:47:30.308Z,25.33
2018-07-17T08:48:37.076Z,25.36
2018-07-17T08:49:43.840Z,25.45
2018-07-17T08:50:50.619Z,25.50
2018-07-17T08:51:57.369Z,25.58
2018-07-17T08:53:04.155Z,25.61
2018-07-17T08:54:10.926Z,25.62
2018-07-17T08:55:17.717Z,25.60
2018-07-17T08:56:24.491Z,25.62
2018-07-17T08:57:31.288Z,25.65
2018-07-17T08:58:38.070Z,25.73
2018-07-17T08:59:44.852Z,25.83
2018-07-17T09:00:51.668Z,25.88
2018-07-17T09:01:58.444Z,25.88
2018-07-17T09:03:05.239Z,25.90
2018-07-17T09:04:12.522Z,25.96
2018-07-17T09:05:18.832Z,26.03
2018-07-17T09:06:25.626Z,26.14
2018-07-17T09:07:32.455Z,26.29
2018-07-17T09:08:39.258Z,26.40
2018-07-17T09:09:46.053Z,26.52
2018-07-17T09:10:52.869Z,26.60
2018-07-17T09:11:59.676Z,26.69
2018-07-17T09:13:06.590Z,26.75
2018-07-17T09:14:13.313Z,26.79
2018-07-17T09:15:20.144Z,26.81
2018-07-17T09:16:26.958Z,26.78
2018-07-17T09:17:33.785Z,26.84
2018-07-17T09:18:40.624Z,26.97
2018-07-17T09:19:47.519Z,27.07
2018-07-17T09:20:54.268Z,27.18
2018-07-17T09:22:01.099Z,27.27
2018-07-17T09:23:07.936Z,27.34
2018-07-17T09:24:14.777Z,27.40
2018-07-17T09:25:21.608Z,27.38
2018-07-17T09:26:28.455Z,27.42
2018-07-17T09:27:35.299Z,27.54
2018-07-17T09:28:42.157Z,27.79
2018-07-17T09:29:48.998Z,27.90
2018-07-17T09:30:56.360Z,28.00
2018-07-17T09:32:02.723Z,28.08
2018-07-17T09:33:09.602Z,28.17
2018-07-17T09:34:16.474Z,28.17
2018-07-17T09:35:23.335Z,28.22
2018-07-17T09:36:30.216Z,28.21
2018-07-17T09:37:37.098Z,28.19
2018-07-17T09:38:43.989Z,28.20
2018-07-17T09:39:50.869Z,28.30
2018-07-17T09:40:57.761Z,28.42
2018-07-17T09:42:04.637Z,28.43
2018-07-17T09:43:11.513Z,28.34
2018-07-17T09:44:18.410Z,28.31
2018-07-17T09:45:25.288Z,28.47
2018-07-17T09:46:32.178Z,28.60
2018-07-17T09:47:39.080Z,28.64
2018-07-17T09:48:45.978Z,28.63
2018-07-17T09:49:52.862Z,28.81
2018-07-17T09:50:59.767Z,29.09
2018-07-17T09:52:06.664Z,29.42
2018-07-17T09:53:13.572Z,29.76
2018-07-17T09:54:20.512Z,30.14
2018-07-17T09:55:27.428Z,30.34
2018-07-17T09:56:34.348Z,30.30
2018-07-17T09:57:41.297Z,30.27
2018-07-17T09:58:48.235Z,30.30
2018-07-17T09:59:55.171Z,30.27
2018-07-17T10:01:02.123Z,30.29
2018-07-17T10:02:09.068Z,30.32
2018-07-17T10:03:16.008Z,30.46
2018-07-17T10:04:22.964Z,30.75
2018-07-17T10:05:30.911Z,31.09
2018-07-17T10:06:36.866Z,31.17
2018-07-17T10:07:43.919Z,31.23
2018-07-17T10:08:50.796Z,31.30
2018-07-17T10:09:57.749Z,31.16
2018-07-17T10:11:04.700Z,31.04
2018-07-17T10:12:11.667Z,31.03
2018-07-17T10:13:18.623Z,31.13
2018-07-17T10:14:25.696Z,31.14
2018-07-17T10:15:32.556Z,31.21
2018-07-17T10:16:39.533Z,31.13
2018-07-17T10:17:46.504Z,31.06
2018-07-17T10:18:53.476Z,30.98
2018-07-17T10:20:00.467Z,30.79
2018-07-17T10:21:07.416Z,30.70
2018-07-17T10:22:14.390Z,30.63
2018-07-17T10:23:21.372Z,30.68
2018-07-17T10:24:28.365Z,30.77
2018-07-17T10:25:35.351Z,30.91
2018-07-17T10:26:42.341Z,30.93
2018-07-17T10:27:49.332Z,30.74
2018-07-17T10:28:56.328Z,30.66
2018-07-17T10:30:03.328Z,30.67
2018-07-17T10:31:10.323Z,30.76
2018-07-17T10:32:17.327Z,30.93
2018-07-17T10:33:24.448Z,31.02
2018-07-17T10:34:31.367Z,30.86
2018-07-17T10:35:38.377Z,30.65
2018-07-17T10:36:45.392Z,30.51
2018-07-17T10:37:52.412Z,30.45
2018-07-17T10:38:59.435Z,30.40
2018-07-17T10:40:06.456Z,30.47
2018-07-17T10:41:13.488Z,30.60
2018-07-17T10:42:20.524Z,30.57
2018-07-17T10:43:27.578Z,30.72
2018-07-17T10:44:34.618Z,30.99
2018-07-17T10:45:41.685Z,31.24
2018-07-17T10:46:48.741Z,31.35
2018-07-17T10:47:55.914Z,31.42
2018-07-17T10:49:02.921Z,31.46
2018-07-17T10:50:09.998Z,31.41
2018-07-17T10:51:17.300Z,31.24
2018-07-17T10:52:24.187Z,30.97
2018-07-17T10:53:31.289Z,30.77
2018-07-17T10:54:38.380Z,30.68
2018-07-17T10:55:45.467Z,30.67
2018-07-17T10:56:52.559Z,30.63
2018-07-17T10:57:59.627Z,30.63
2018-07-17T10:59:06.723Z,30.73
2018-07-17T11:00:13.791Z,30.82
2018-07-17T11:01:20.865Z,30.79
2018-07-17T11:02:27.946Z,30.70
2018-07-17T11:03:35.013Z,30.63
2018-07-17T11:04:42.089Z,30.62
2018-07-17T11:05:49.155Z,30.65
2018-07-17T11:06:56.215Z,30.66
2018-07-17T11:08:03.280Z,30.68
2018-07-17T11:09:10.360Z,30.62
2018-07-17T11:10:17.425Z,30.52
2018-07-17T11:11:24.497Z,30.32
2018-07-17T11:12:31.571Z,30.18
2018-07-17T11:13:38.647Z,30.08
2018-07-17T11:14:45.743Z,30.12
2018-07-17T11:15:52.913Z,30.29
2018-07-17T11:17:00.111Z,30.52
2018-07-17T11:18:07.389Z,30.70
2018-07-17T11:19:14.647Z,30.73
2018-07-17T11:20:21.863Z,30.61
2018-07-17T11:21:29.043Z,30.36
2018-07-17T11:22:36.187Z,30.20
2018-07-17T11:23:43.901Z,30.09
2018-07-17T11:24:50.478Z,30.01
2018-07-17T11:25:57.654Z,30.01
2018-07-17T11:27:05.361Z,29.92
2018-07-17T11:28:12.059Z,29.90
2018-07-17T11:29:19.335Z,29.87
2018-07-17T11:30:28.113Z,29.90
2018-07-17T11:31:33.944Z,29.90
2018-07-17T11:32:41.299Z,29.88
2018-07-17T11:33:49.658Z,29.96
2018-07-17T11:34:56.097Z,29.97
2018-07-17T11:36:03.992Z,30.19
2018-07-17T11:37:11.473Z,30.43
2018-07-17T11:38:18.504Z,30.54
2018-07-17T11:39:26.036Z,30.59
2018-07-17T11:40:33.572Z,30.44
2018-07-17T11:41:41.125Z,30.50
2018-07-17T11:42:48.711Z,30.76
2018-07-17T11:43:56.308Z,30.93
2018-07-17T11:45:03.905Z,31.24
2018-07-17T11:46:11.463Z,31.24
2018-07-17T11:47:18.979Z,31.05
2018-07-17T11:48:26.487Z,30.86
2018-07-17T11:49:33.974Z,30.65
2018-07-17T11:50:41.448Z,30.47
2018-07-17T11:51:48.913Z,30.31
2018-07-17T11:52:56.355Z,30.19
2018-07-17T11:54:03.751Z,30.09
2018-07-17T11:55:11.182Z,30.11
2018-07-17T11:56:18.655Z,30.21
2018-07-17T11:57:26.241Z,30.44
2018-07-17T11:58:33.889Z,30.69
2018-07-17T11:59:41.612Z,30.87
2018-07-17T12:00:49.380Z,31.14
2018-07-17T12:01:57.198Z,31.36
2018-07-17T12:03:05.066Z,31.57
2018-07-17T12:04:12.920Z,31.46
2018-07-17T12:05:20.730Z,31.36
2018-07-17T12:06:28.560Z,31.34
2018-07-17T12:07:36.454Z,31.43
2018-07-17T12:08:44.383Z,31.32
2018-07-17T12:09:52.340Z,31.39
2018-07-17T12:11:00.308Z,31.45
2018-07-17T12:12:08.312Z,31.47
2018-07-17T12:13:16.340Z,31.64
2018-07-17T12:14:24.383Z,31.73
2018-07-17T12:15:32.437Z,31.79
2018-07-17T12:16:40.498Z,31.95
2018-07-17T12:17:48.578Z,31.97
2018-07-17T12:18:56.676Z,32.06
2018-07-17T12:20:04.935Z,32.16
2018-07-17T12:21:12.886Z,32.51
2018-07-17T12:22:20.983Z,32.40
2018-07-17T12:23:29.007Z,32.32
2018-07-17T12:24:37.071Z,32.38
2018-07-17T12:25:45.151Z,32.13
2018-07-17T12:26:54.233Z,31.83
2018-07-17T12:28:01.273Z,31.60
2018-07-17T12:29:09.164Z,31.65
2018-07-17T12:30:17.606Z,31.62
2018-07-17T12:31:25.050Z,31.77
2018-07-17T12:32:33.037Z,31.97
2018-07-17T12:33:41.050Z,32.13
2018-07-17T12:34:50.158Z,32.23
2018-07-17T12:35:57.121Z,32.06
2018-07-17T12:37:05.102Z,31.92
2018-07-17T12:38:13.052Z,32.23
2018-07-17T12:39:21.004Z,32.51
2018-07-17T12:40:29.450Z,32.59
2018-07-17T12:41:36.790Z,32.71
2018-07-17T12:42:44.565Z,32.51
2018-07-17T12:43:52.281Z,32.47
2018-07-17T12:44:59.942Z,32.51
2018-07-17T12:46:07.542Z,32.36
2018-07-17T12:47:15.112Z,32.20
2018-07-17T12:48:22.649Z,32.23
2018-07-17T12:49:30.146Z,32.39
2018-07-17T12:50:37.613Z,32.54
2018-07-17T12:51:45.043Z,32.62
2018-07-17T12:52:52.474Z,32.72
2018-07-17T12:53:59.868Z,32.80
2018-07-17T12:55:07.259Z,32.83
2018-07-17T12:56:14.625Z,32.78
2018-07-17T12:57:21.976Z,32.78
2018-07-17T12:58:29.324Z,32.95
2018-07-17T12:59:36.670Z,32.92
2018-07-17T13:00:44.015Z,33.23
2018-07-17T13:01:51.346Z,33.35
2018-07-17T13:02:58.688Z,33.37
2018-07-17T13:04:06.005Z,33.31
2018-07-17T13:05:13.327Z,33.45
2018-07-17T13:06:20.639Z,33.49
2018-07-17T13:07:27.962Z,33.52
2018-07-17T13:08:35.381Z,33.57
2018-07-17T13:09:42.711Z,33.31
2018-07-17T13:10:50.139Z,33.36
2018-07-17T13:11:57.571Z,33.70
2018-07-17T13:13:05.049Z,33.96
2018-07-17T13:14:12.513Z,34.09
2018-07-17T13:15:20.990Z,34.01
2018-07-17T13:16:27.451Z,33.82
2018-07-17T13:17:34.969Z,33.70
2018-07-17T13:18:42.369Z,33.55
2018-07-17T13:19:49.853Z,33.39
2018-07-17T13:20:57.423Z,33.44
2018-07-17T13:22:05.027Z,33.52
2018-07-17T13:23:12.711Z,33.74
2018-07-17T13:24:20.457Z,33.96
2018-07-17T13:25:28.251Z,34.23
2018-07-17T13:26:36.066Z,34.69
2018-07-17T13:27:43.918Z,34.61
2018-07-17T13:28:51.817Z,34.41
2018-07-17T13:29:59.740Z,34.13
2018-07-17T13:31:07.689Z,33.99
2018-07-17T13:32:15.636Z,33.90
2018-07-17T13:33:23.620Z,33.70
2018-07-17T13:34:31.616Z,33.68
2018-07-17T13:35:39.626Z,33.81
2018-07-17T13:36:47.654Z,33.93
2018-07-17T13:37:55.691Z,34.17
2018-07-17T13:39:03.733Z,34.12
2018-07-17T13:40:11.790Z,33.95
2018-07-17T13:41:19.785Z,33.75
2018-07-17T13:42:27.734Z,33.68
2018-07-17T13:43:35.702Z,33.65
2018-07-17T13:44:43.648Z,33.59
2018-07-17T13:45:51.563Z,33.47
2018-07-17T13:47:00.527Z,33.38
2018-07-17T13:48:07.463Z,33.49
2018-07-17T13:49:15.395Z,33.28
2018-07-17T13:50:23.401Z,33.29
2018-07-17T13:51:31.287Z,33.23
2018-07-17T13:52:39.274Z,33.30
2018-07-17T13:53:47.254Z,33.19
2018-07-17T13:54:55.241Z,33.02
2018-07-17T13:56:03.198Z,33.00
2018-07-17T13:57:11.093Z,32.85
2018-07-17T13:58:18.905Z,32.84
2018-07-17T13:59:26.673Z,32.56
2018-07-17T14:00:34.430Z,32.48
2018-07-17T14:01:42.202Z,32.62
2018-07-17T14:02:50.003Z,33.00
2018-07-17T14:03:57.832Z,33.17
2018-07-17T14:05:05.704Z,33.20
2018-07-17T14:06:13.564Z,33.03
2018-07-17T14:07:22.375Z,32.77
2018-07-17T14:08:29.205Z,32.77
2018-07-17T14:09:37.003Z,32.72
2018-07-17T14:10:44.772Z,32.63
2018-07-17T14:11:52.470Z,32.28
2018-07-17T14:13:00.155Z,31.88
2018-07-17T14:14:07.867Z,31.75
2018-07-17T14:15:15.596Z,31.67
2018-07-17T14:16:23.282Z,31.58
2018-07-17T14:17:30.962Z,31.53
2018-07-17T14:18:38.554Z,31.38
2018-07-17T14:19:46.141Z,31.29
2018-07-17T14:20:53.689Z,31.30